sensor_id;sensor_type;location;lat;lon;timestamp;P1;durP1;ratioP1;P2;durP2;ratioP2
26946;SDS011;14501;52.282;10.560;2024-03-07T00:00:44;7.47;;;4.40;;
26946;SDS011;14501;52.282;10.560;2024-03-07T00:03:10;10.00;;;4.97;;
26946;SDS011;14501;52.282;10.560;2024-03-07T00:05:36;8.25;;;4.93;;
26946;SDS011;14501;52.282;10.560;2024-03-07T00:08:02;8.65;;;5.18;;
26946;SDS011;14501;52.282;10.560;2024-03-07T00:10:28;7.70;;;4.10;;
26946;SDS011;14501;52.282;10.560;2024-03-07T00:12:54;4.55;;;3.85;;
26946;SDS011;14501;52.282;10.560;2024-03-07T00:15:20;9.23;;;4.35;;
26946;SDS011;14501;52.282;10.560;2024-03-07T00:17:46;8.52;;;5.75;;
26946;SDS011;14501;52.282;10.560;2024-03-07T00:20:11;8.93;;;4.70;;
26946;SDS011;14501;52.282;10.560;2024-03-07T00:22:45;9.82;;;4.05;;
26946;SDS011;14501;52.282;10.560;2024-03-07T00:25:11;8.48;;;6.00;;
26946;SDS011;14501;52.282;10.560;2024-03-07T00:27:39;9.90;;;5.47;;
26946;SDS011;14501;52.282;10.560;2024-03-07T00:30:05;7.05;;;4.22;;
26946;SDS011;14501;52.282;10.560;2024-03-07T00:32:34;5.80;;;3.78;;
26946;SDS011;14501;52.282;10.560;2024-03-07T00:35:04;7.13;;;4.15;;
26946;SDS011;14501;52.282;10.560;2024-03-07T00:37:30;6.57;;;4.60;;
26946;SDS011;14501;52.282;10.560;2024-03-07T00:39:56;7.60;;;5.72;;
26946;SDS011;14501;52.282;10.560;2024-03-07T00:42:22;6.40;;;4.53;;
26946;SDS011;14501;52.282;10.560;2024-03-07T00:44:48;12.35;;;4.78;;
26946;SDS011;14501;52.282;10.560;2024-03-07T00:47:16;9.65;;;4.95;;
26946;SDS011;14501;52.282;10.560;2024-03-07T00:49:45;9.30;;;5.10;;
26946;SDS011;14501;52.282;10.560;2024-03-07T00:52:14;8.25;;;4.95;;
26946;SDS011;14501;52.282;10.560;2024-03-07T00:54:40;7.25;;;4.32;;
26946;SDS011;14501;52.282;10.560;2024-03-07T00:57:06;9.88;;;5.22;;
26946;SDS011;14501;52.282;10.560;2024-03-07T00:59:32;6.90;;;5.60;;
26946;SDS011;14501;52.282;10.560;2024-03-07T01:01:58;9.27;;;5.15;;
26946;SDS011;14501;52.282;10.560;2024-03-07T01:04:24;13.35;;;4.85;;
26946;SDS011;14501;52.282;10.560;2024-03-07T01:06:55;6.10;;;4.03;;
26946;SDS011;14501;52.282;10.560;2024-03-07T01:09:28;6.03;;;3.63;;
26946;SDS011;14501;52.282;10.560;2024-03-07T01:11:54;11.65;;;5.57;;
26946;SDS011;14501;52.282;10.560;2024-03-07T01:14:20;8.02;;;3.63;;
26946;SDS011;14501;52.282;10.560;2024-03-07T01:16:47;9.80;;;4.88;;
26946;SDS011;14501;52.282;10.560;2024-03-07T01:19:13;7.88;;;5.05;;
26946;SDS011;14501;52.282;10.560;2024-03-07T01:21:39;7.80;;;6.05;;
26946;SDS011;14501;52.282;10.560;2024-03-07T01:24:05;8.55;;;5.72;;
26946;SDS011;14501;52.282;10.560;2024-03-07T01:26:31;8.88;;;5.47;;
26946;SDS011;14501;52.282;10.560;2024-03-07T01:28:58;9.82;;;5.22;;
26946;SDS011;14501;52.282;10.560;2024-03-07T01:31:24;13.95;;;5.57;;
26946;SDS011;14501;52.282;10.560;2024-03-07T01:33:50;8.48;;;5.95;;
26946;SDS011;14501;52.282;10.560;2024-03-07T01:36:16;6.90;;;4.75;;
26946;SDS011;14501;52.282;10.560;2024-03-07T01:38:42;6.30;;;5.05;;
26946;SDS011;14501;52.282;10.560;2024-03-07T01:41:08;9.18;;;5.45;;
26946;SDS011;14501;52.282;10.560;2024-03-07T01:43:33;10.63;;;4.70;;
26946;SDS011;14501;52.282;10.560;2024-03-07T01:45:59;7.72;;;4.88;;
26946;SDS011;14501;52.282;10.560;2024-03-07T01:48:28;13.00;;;5.63;;
26946;SDS011;14501;52.282;10.560;2024-03-07T01:50:56;11.05;;;5.45;;
26946;SDS011;14501;52.282;10.560;2024-03-07T01:53:27;12.07;;;5.97;;
26946;SDS011;14501;52.282;10.560;2024-03-07T01:55:53;9.32;;;5.35;;
26946;SDS011;14501;52.282;10.560;2024-03-07T01:58:20;11.50;;;5.47;;
26946;SDS011;14501;52.282;10.560;2024-03-07T02:00:46;8.75;;;5.65;;
26946;SDS011;14501;52.282;10.560;2024-03-07T02:03:12;11.95;;;5.85;;
26946;SDS011;14501;52.282;10.560;2024-03-07T02:05:39;6.70;;;4.57;;
26946;SDS011;14501;52.282;10.560;2024-03-07T02:08:05;8.90;;;5.60;;
26946;SDS011;14501;52.282;10.560;2024-03-07T02:10:31;6.15;;;4.70;;
26946;SDS011;14501;52.282;10.560;2024-03-07T02:12:57;15.13;;;4.55;;
26946;SDS011;14501;52.282;10.560;2024-03-07T02:15:22;9.55;;;5.40;;
26946;SDS011;14501;52.282;10.560;2024-03-07T02:17:48;10.75;;;5.90;;
26946;SDS011;14501;52.282;10.560;2024-03-07T02:20:13;13.23;;;5.95;;
26946;SDS011;14501;52.282;10.560;2024-03-07T02:22:40;8.10;;;4.93;;
26946;SDS011;14501;52.282;10.560;2024-03-07T02:25:07;10.32;;;5.53;;
26946;SDS011;14501;52.282;10.560;2024-03-07T02:27:37;13.75;;;5.88;;
26946;SDS011;14501;52.282;10.560;2024-03-07T02:30:04;11.23;;;6.50;;
26946;SDS011;14501;52.282;10.560;2024-03-07T02:32:33;8.75;;;5.07;;
26946;SDS011;14501;52.282;10.560;2024-03-07T02:34:59;7.57;;;4.20;;
26946;SDS011;14501;52.282;10.560;2024-03-07T02:37:25;8.15;;;4.47;;
26946;SDS011;14501;52.282;10.560;2024-03-07T02:39:50;8.70;;;4.55;;
26946;SDS011;14501;52.282;10.560;2024-03-07T02:42:16;5.63;;;3.35;;
26946;SDS011;14501;52.282;10.560;2024-03-07T02:44:41;12.85;;;5.68;;
26946;SDS011;14501;52.282;10.560;2024-03-07T02:47:07;8.13;;;4.50;;
26946;SDS011;14501;52.282;10.560;2024-03-07T02:49:33;9.50;;;5.47;;
26946;SDS011;14501;52.282;10.560;2024-03-07T02:51:59;7.93;;;5.32;;
26946;SDS011;14501;52.282;10.560;2024-03-07T02:54:25;10.07;;;5.75;;
26946;SDS011;14501;52.282;10.560;2024-03-07T02:56:51;10.50;;;5.57;;
26946;SDS011;14501;52.282;10.560;2024-03-07T02:59:16;10.20;;;5.65;;
26946;SDS011;14501;52.282;10.560;2024-03-07T03:01:42;10.90;;;4.63;;
26946;SDS011;14501;52.282;10.560;2024-03-07T03:04:08;8.05;;;5.50;;
26946;SDS011;14501;52.282;10.560;2024-03-07T03:06:33;8.02;;;4.90;;
26946;SDS011;14501;52.282;10.560;2024-03-07T03:08:59;8.77;;;4.70;;
26946;SDS011;14501;52.282;10.560;2024-03-07T03:11:25;11.32;;;5.15;;
26946;SDS011;14501;52.282;10.560;2024-03-07T03:13:53;10.85;;;5.35;;
26946;SDS011;14501;52.282;10.560;2024-03-07T03:16:19;6.75;;;3.90;;
26946;SDS011;14501;52.282;10.560;2024-03-07T03:18:44;9.05;;;4.68;;
26946;SDS011;14501;52.282;10.560;2024-03-07T03:21:10;9.43;;;5.47;;
26946;SDS011;14501;52.282;10.560;2024-03-07T03:23:36;8.93;;;4.32;;
26946;SDS011;14501;52.282;10.560;2024-03-07T03:26:02;7.38;;;4.35;;
26946;SDS011;14501;52.282;10.560;2024-03-07T03:28:28;12.30;;;5.22;;
26946;SDS011;14501;52.282;10.560;2024-03-07T03:30:54;5.90;;;3.97;;
26946;SDS011;14501;52.282;10.560;2024-03-07T03:33:20;8.57;;;4.95;;
26946;SDS011;14501;52.282;10.560;2024-03-07T03:35:45;9.90;;;5.22;;
26946;SDS011;14501;52.282;10.560;2024-03-07T03:38:11;8.52;;;5.28;;
26946;SDS011;14501;52.282;10.560;2024-03-07T03:40:37;9.45;;;4.38;;
26946;SDS011;14501;52.282;10.560;2024-03-07T03:43:02;7.63;;;3.22;;
26946;SDS011;14501;52.282;10.560;2024-03-07T03:45:28;7.40;;;4.40;;
26946;SDS011;14501;52.282;10.560;2024-03-07T03:47:54;9.68;;;5.00;;
26946;SDS011;14501;52.282;10.560;2024-03-07T03:50:20;8.85;;;4.65;;
26946;SDS011;14501;52.282;10.560;2024-03-07T03:52:48;7.40;;;4.47;;
26946;SDS011;14501;52.282;10.560;2024-03-07T03:55:13;12.38;;;4.97;;
26946;SDS011;14501;52.282;10.560;2024-03-07T03:57:42;6.65;;;4.13;;
26946;SDS011;14501;52.282;10.560;2024-03-07T04:00:09;9.85;;;4.65;;
26946;SDS011;14501;52.282;10.560;2024-03-07T04:02:47;8.32;;;4.38;;
26946;SDS011;14501;52.282;10.560;2024-03-07T04:05:14;6.22;;;4.40;;
26946;SDS011;14501;52.282;10.560;2024-03-07T04:07:41;7.20;;;3.40;;
26946;SDS011;14501;52.282;10.560;2024-03-07T04:10:07;6.95;;;4.07;;
26946;SDS011;14501;52.282;10.560;2024-03-07T04:12:37;7.85;;;4.43;;
26946;SDS011;14501;52.282;10.560;2024-03-07T04:15:04;8.93;;;5.00;;
26946;SDS011;14501;52.282;10.560;2024-03-07T04:17:35;9.65;;;4.65;;
26946;SDS011;14501;52.282;10.560;2024-03-07T04:20:02;9.52;;;4.88;;
26946;SDS011;14501;52.282;10.560;2024-03-07T04:22:30;8.95;;;5.03;;
26946;SDS011;14501;52.282;10.560;2024-03-07T04:25:00;11.80;;;4.63;;
26946;SDS011;14501;52.282;10.560;2024-03-07T04:27:26;10.77;;;4.88;;
26946;SDS011;14501;52.282;10.560;2024-03-07T04:29:52;9.50;;;4.53;;
26946;SDS011;14501;52.282;10.560;2024-03-07T04:32:18;9.02;;;4.45;;
26946;SDS011;14501;52.282;10.560;2024-03-07T04:34:44;12.25;;;6.72;;
26946;SDS011;14501;52.282;10.560;2024-03-07T04:37:10;14.45;;;5.90;;
26946;SDS011;14501;52.282;10.560;2024-03-07T04:39:36;16.40;;;6.65;;
26946;SDS011;14501;52.282;10.560;2024-03-07T04:42:03;13.88;;;6.57;;
26946;SDS011;14501;52.282;10.560;2024-03-07T04:44:29;22.10;;;7.90;;
26946;SDS011;14501;52.282;10.560;2024-03-07T04:46:55;14.00;;;6.50;;
26946;SDS011;14501;52.282;10.560;2024-03-07T04:49:24;9.60;;;6.05;;
26946;SDS011;14501;52.282;10.560;2024-03-07T04:51:53;20.00;;;8.20;;
26946;SDS011;14501;52.282;10.560;2024-03-07T04:54:20;19.52;;;6.45;;
26946;SDS011;14501;52.282;10.560;2024-03-07T04:56:47;17.02;;;6.75;;
26946;SDS011;14501;52.282;10.560;2024-03-07T04:59:13;17.92;;;6.70;;
26946;SDS011;14501;52.282;10.560;2024-03-07T05:01:39;20.70;;;7.30;;
26946;SDS011;14501;52.282;10.560;2024-03-07T05:04:05;23.17;;;8.88;;
26946;SDS011;14501;52.282;10.560;2024-03-07T05:06:32;23.52;;;10.13;;
26946;SDS011;14501;52.282;10.560;2024-03-07T05:09:01;21.73;;;7.35;;
26946;SDS011;14501;52.282;10.560;2024-03-07T05:11:31;20.75;;;7.57;;
26946;SDS011;14501;52.282;10.560;2024-03-07T05:13:57;20.20;;;9.43;;
26946;SDS011;14501;52.282;10.560;2024-03-07T05:16:23;19.67;;;6.93;;
26946;SDS011;14501;52.282;10.560;2024-03-07T05:18:50;17.08;;;7.28;;
26946;SDS011;14501;52.282;10.560;2024-03-07T05:21:17;25.50;;;9.68;;
26946;SDS011;14501;52.282;10.560;2024-03-07T05:23:58;14.52;;;7.10;;
26946;SDS011;14501;52.282;10.560;2024-03-07T05:26:24;12.13;;;6.25;;
26946;SDS011;14501;52.282;10.560;2024-03-07T05:28:51;17.98;;;7.75;;
26946;SDS011;14501;52.282;10.560;2024-03-07T05:31:17;20.65;;;7.20;;
26946;SDS011;14501;52.282;10.560;2024-03-07T05:33:43;22.42;;;8.82;;
26946;SDS011;14501;52.282;10.560;2024-03-07T05:36:09;26.85;;;7.80;;
26946;SDS011;14501;52.282;10.560;2024-03-07T05:38:41;22.92;;;7.53;;
26946;SDS011;14501;52.282;10.560;2024-03-07T05:41:13;29.10;;;11.40;;
26946;SDS011;14501;52.282;10.560;2024-03-07T05:43:39;19.02;;;8.07;;
26946;SDS011;14501;52.282;10.560;2024-03-07T05:46:05;17.10;;;7.43;;
26946;SDS011;14501;52.282;10.560;2024-03-07T05:48:32;33.42;;;8.65;;
26946;SDS011;14501;52.282;10.560;2024-03-07T05:50:58;28.42;;;9.50;;
26946;SDS011;14501;52.282;10.560;2024-03-07T05:53:24;32.08;;;12.02;;
26946;SDS011;14501;52.282;10.560;2024-03-07T05:55:50;18.73;;;8.38;;
26946;SDS011;14501;52.282;10.560;2024-03-07T05:58:17;30.85;;;8.68;;
26946;SDS011;14501;52.282;10.560;2024-03-07T06:00:44;25.08;;;9.88;;
26946;SDS011;14501;52.282;10.560;2024-03-07T06:03:14;19.83;;;7.25;;
26946;SDS011;14501;52.282;10.560;2024-03-07T06:05:42;25.55;;;8.48;;
26946;SDS011;14501;52.282;10.560;2024-03-07T06:08:08;44.30;;;11.75;;
26946;SDS011;14501;52.282;10.560;2024-03-07T06:10:34;29.85;;;9.20;;
26946;SDS011;14501;52.282;10.560;2024-03-07T06:13:03;27.00;;;9.57;;
26946;SDS011;14501;52.282;10.560;2024-03-07T06:15:31;32.13;;;9.73;;
26946;SDS011;14501;52.282;10.560;2024-03-07T06:17:57;26.17;;;10.15;;
26946;SDS011;14501;52.282;10.560;2024-03-07T06:20:22;23.98;;;9.27;;
26946;SDS011;14501;52.282;10.560;2024-03-07T06:22:49;29.38;;;10.05;;
26946;SDS011;14501;52.282;10.560;2024-03-07T06:25:18;27.52;;;10.73;;
26946;SDS011;14501;52.282;10.560;2024-03-07T06:27:48;33.20;;;10.27;;
26946;SDS011;14501;52.282;10.560;2024-03-07T06:30:14;31.73;;;11.68;;
26946;SDS011;14501;52.282;10.560;2024-03-07T06:32:44;33.58;;;11.52;;
26946;SDS011;14501;52.282;10.560;2024-03-07T06:35:09;18.20;;;7.10;;
26946;SDS011;14501;52.282;10.560;2024-03-07T06:37:35;28.83;;;10.57;;
26946;SDS011;14501;52.282;10.560;2024-03-07T06:40:01;27.45;;;9.02;;
26946;SDS011;14501;52.282;10.560;2024-03-07T06:42:31;20.90;;;7.25;;
26946;SDS011;14501;52.282;10.560;2024-03-07T06:44:57;24.17;;;8.57;;
26946;SDS011;14501;52.282;10.560;2024-03-07T06:47:23;18.10;;;7.90;;
26946;SDS011;14501;52.282;10.560;2024-03-07T06:49:49;34.10;;;9.52;;
26946;SDS011;14501;52.282;10.560;2024-03-07T06:52:17;15.30;;;7.85;;
26946;SDS011;14501;52.282;10.560;2024-03-07T06:54:43;24.67;;;8.38;;
26946;SDS011;14501;52.282;10.560;2024-03-07T06:57:09;33.30;;;11.35;;
26946;SDS011;14501;52.282;10.560;2024-03-07T06:59:35;22.42;;;9.05;;
26946;SDS011;14501;52.282;10.560;2024-03-07T07:02:01;28.92;;;9.27;;
26946;SDS011;14501;52.282;10.560;2024-03-07T07:04:28;20.98;;;8.93;;
26946;SDS011;14501;52.282;10.560;2024-03-07T07:07:06;25.05;;;7.93;;
26946;SDS011;14501;52.282;10.560;2024-03-07T07:09:33;27.45;;;8.85;;
26946;SDS011;14501;52.282;10.560;2024-03-07T07:12:00;21.08;;;7.28;;
26946;SDS011;14501;52.282;10.560;2024-03-07T07:14:28;24.73;;;8.77;;
26946;SDS011;14501;52.282;10.560;2024-03-07T07:16:54;25.38;;;10.48;;
26946;SDS011;14501;52.282;10.560;2024-03-07T07:19:21;28.60;;;8.75;;
26946;SDS011;14501;52.282;10.560;2024-03-07T07:21:47;39.35;;;8.15;;
26946;SDS011;14501;52.282;10.560;2024-03-07T07:24:18;25.95;;;8.30;;
26946;SDS011;14501;52.282;10.560;2024-03-07T07:26:46;38.90;;;8.95;;
26946;SDS011;14501;52.282;10.560;2024-03-07T07:29:12;38.83;;;10.55;;
26946;SDS011;14501;52.282;10.560;2024-03-07T07:31:38;33.90;;;9.10;;
26946;SDS011;14501;52.282;10.560;2024-03-07T07:34:03;36.85;;;9.13;;
26946;SDS011;14501;52.282;10.560;2024-03-07T07:36:29;29.50;;;8.60;;
26946;SDS011;14501;52.282;10.560;2024-03-07T07:38:55;34.22;;;10.93;;
26946;SDS011;14501;52.282;10.560;2024-03-07T07:41:21;28.15;;;9.52;;
26946;SDS011;14501;52.282;10.560;2024-03-07T07:43:46;38.42;;;11.55;;
26946;SDS011;14501;52.282;10.560;2024-03-07T07:46:13;28.52;;;8.75;;
26946;SDS011;14501;52.282;10.560;2024-03-07T07:48:41;32.88;;;9.80;;
26946;SDS011;14501;52.282;10.560;2024-03-07T07:51:06;23.65;;;7.10;;
26946;SDS011;14501;52.282;10.560;2024-03-07T07:53:32;23.00;;;8.65;;
26946;SDS011;14501;52.282;10.560;2024-03-07T07:55:58;30.33;;;10.25;;
26946;SDS011;14501;52.282;10.560;2024-03-07T07:58:24;27.90;;;9.77;;
26946;SDS011;14501;52.282;10.560;2024-03-07T08:00:49;19.95;;;8.07;;
26946;SDS011;14501;52.282;10.560;2024-03-07T08:03:15;33.40;;;10.55;;
26946;SDS011;14501;52.282;10.560;2024-03-07T08:05:42;43.33;;;9.98;;
26946;SDS011;14501;52.282;10.560;2024-03-07T08:08:09;30.08;;;9.65;;
26946;SDS011;14501;52.282;10.560;2024-03-07T08:10:38;31.13;;;9.98;;
26946;SDS011;14501;52.282;10.560;2024-03-07T08:13:06;22.55;;;9.50;;
26946;SDS011;14501;52.282;10.560;2024-03-07T08:15:31;18.10;;;9.05;;
26946;SDS011;14501;52.282;10.560;2024-03-07T08:17:57;27.02;;;7.63;;
26946;SDS011;14501;52.282;10.560;2024-03-07T08:20:24;36.58;;;9.77;;
26946;SDS011;14501;52.282;10.560;2024-03-07T08:22:51;25.80;;;8.57;;
26946;SDS011;14501;52.282;10.560;2024-03-07T08:25:20;28.42;;;10.07;;
26946;SDS011;14501;52.282;10.560;2024-03-07T08:27:49;24.85;;;9.10;;
26946;SDS011;14501;52.282;10.560;2024-03-07T08:30:15;29.65;;;9.25;;
26946;SDS011;14501;52.282;10.560;2024-03-07T08:32:42;37.42;;;11.13;;
26946;SDS011;14501;52.282;10.560;2024-03-07T08:35:11;31.30;;;8.55;;
26946;SDS011;14501;52.282;10.560;2024-03-07T08:37:37;30.40;;;9.90;;
26946;SDS011;14501;52.282;10.560;2024-03-07T08:40:08;29.70;;;9.85;;
26946;SDS011;14501;52.282;10.560;2024-03-07T08:42:44;41.38;;;10.90;;
26946;SDS011;14501;52.282;10.560;2024-03-07T08:45:10;27.00;;;8.77;;
26946;SDS011;14501;52.282;10.560;2024-03-07T08:47:37;29.77;;;9.80;;
26946;SDS011;14501;52.282;10.560;2024-03-07T08:50:03;29.23;;;10.50;;
26946;SDS011;14501;52.282;10.560;2024-03-07T08:52:33;23.55;;;8.20;;
26946;SDS011;14501;52.282;10.560;2024-03-07T08:55:01;34.47;;;9.50;;
26946;SDS011;14501;52.282;10.560;2024-03-07T08:57:28;27.40;;;9.38;;
26946;SDS011;14501;52.282;10.560;2024-03-07T08:59:53;26.70;;;8.77;;
26946;SDS011;14501;52.282;10.560;2024-03-07T09:02:19;35.42;;;9.50;;
26946;SDS011;14501;52.282;10.560;2024-03-07T09:04:45;21.85;;;9.38;;
26946;SDS011;14501;52.282;10.560;2024-03-07T09:07:11;24.88;;;8.27;;
26946;SDS011;14501;52.282;10.560;2024-03-07T09:09:39;29.13;;;10.02;;
26946;SDS011;14501;52.282;10.560;2024-03-07T09:12:08;28.83;;;9.80;;
26946;SDS011;14501;52.282;10.560;2024-03-07T09:14:34;23.00;;;8.93;;
26946;SDS011;14501;52.282;10.560;2024-03-07T09:17:00;35.72;;;10.90;;
26946;SDS011;14501;52.282;10.560;2024-03-07T09:19:26;27.48;;;10.07;;
26946;SDS011;14501;52.282;10.560;2024-03-07T09:21:53;31.85;;;9.77;;
26946;SDS011;14501;52.282;10.560;2024-03-07T09:24:20;40.10;;;10.20;;
26946;SDS011;14501;52.282;10.560;2024-03-07T09:26:52;36.63;;;11.30;;
26946;SDS011;14501;52.282;10.560;2024-03-07T09:29:18;21.95;;;10.68;;
26946;SDS011;14501;52.282;10.560;2024-03-07T09:31:50;27.60;;;8.43;;
26946;SDS011;14501;52.282;10.560;2024-03-07T09:34:17;34.00;;;11.15;;
26946;SDS011;14501;52.282;10.560;2024-03-07T09:36:43;21.48;;;9.23;;
26946;SDS011;14501;52.282;10.560;2024-03-07T09:39:09;24.55;;;9.52;;
26946;SDS011;14501;52.282;10.560;2024-03-07T09:41:37;22.63;;;8.93;;
26946;SDS011;14501;52.282;10.560;2024-03-07T09:44:04;27.42;;;9.68;;
26946;SDS011;14501;52.282;10.560;2024-03-07T09:46:31;25.50;;;9.45;;
26946;SDS011;14501;52.282;10.560;2024-03-07T09:48:57;35.15;;;9.35;;
26946;SDS011;14501;52.282;10.560;2024-03-07T09:51:23;32.20;;;10.00;;
26946;SDS011;14501;52.282;10.560;2024-03-07T09:53:50;24.35;;;11.68;;
26946;SDS011;14501;52.282;10.560;2024-03-07T09:56:19;23.33;;;8.68;;
26946;SDS011;14501;52.282;10.560;2024-03-07T09:58:48;28.45;;;10.73;;
26946;SDS011;14501;52.282;10.560;2024-03-07T10:01:15;24.63;;;9.23;;
26946;SDS011;14501;52.282;10.560;2024-03-07T10:03:44;23.88;;;9.77;;
26946;SDS011;14501;52.282;10.560;2024-03-07T10:06:12;29.55;;;9.18;;
26946;SDS011;14501;52.282;10.560;2024-03-07T10:08:38;22.27;;;9.68;;
26946;SDS011;14501;52.282;10.560;2024-03-07T10:11:06;30.30;;;9.57;;
26946;SDS011;14501;52.282;10.560;2024-03-07T10:13:34;28.52;;;9.85;;
26946;SDS011;14501;52.282;10.560;2024-03-07T10:16:00;26.77;;;9.98;;
26946;SDS011;14501;52.282;10.560;2024-03-07T10:18:26;28.20;;;9.85;;
26946;SDS011;14501;52.282;10.560;2024-03-07T10:20:55;23.27;;;8.95;;
26946;SDS011;14501;52.282;10.560;2024-03-07T10:23:24;24.95;;;8.50;;
26946;SDS011;14501;52.282;10.560;2024-03-07T10:25:50;24.00;;;8.57;;
26946;SDS011;14501;52.282;10.560;2024-03-07T10:28:16;22.52;;;8.32;;
26946;SDS011;14501;52.282;10.560;2024-03-07T10:30:43;21.85;;;10.05;;
26946;SDS011;14501;52.282;10.560;2024-03-07T10:33:13;24.13;;;10.32;;
26946;SDS011;14501;52.282;10.560;2024-03-07T10:35:38;22.73;;;8.00;;
26946;SDS011;14501;52.282;10.560;2024-03-07T10:38:04;19.10;;;6.93;;
26946;SDS011;14501;52.282;10.560;2024-03-07T10:40:36;23.90;;;9.15;;
26946;SDS011;14501;52.282;10.560;2024-03-07T10:43:07;13.60;;;6.97;;
26946;SDS011;14501;52.282;10.560;2024-03-07T10:45:37;20.50;;;6.88;;
26946;SDS011;14501;52.282;10.560;2024-03-07T10:48:13;20.08;;;8.30;;
26946;SDS011;14501;52.282;10.560;2024-03-07T10:56:19;17.52;;;7.90;;
26946;SDS011;14501;52.282;10.560;2024-03-07T10:59:19;16.95;;;7.13;;
26946;SDS011;14501;52.282;10.560;2024-03-07T11:02:05;18.83;;;8.38;;
26946;SDS011;14501;52.282;10.560;2024-03-07T11:04:37;19.88;;;8.02;;
26946;SDS011;14501;52.282;10.560;2024-03-07T11:07:04;19.05;;;7.65;;
26946;SDS011;14501;52.282;10.560;2024-03-07T11:09:30;32.40;;;8.27;;
26946;SDS011;14501;52.282;10.560;2024-03-07T11:11:59;16.42;;;8.18;;
26946;SDS011;14501;52.282;10.560;2024-03-07T11:14:28;23.67;;;8.05;;
26946;SDS011;14501;52.282;10.560;2024-03-07T11:16:56;22.88;;;8.95;;
26946;SDS011;14501;52.282;10.560;2024-03-07T11:19:27;21.77;;;8.25;;
26946;SDS011;14501;52.282;10.560;2024-03-07T11:21:56;16.10;;;7.15;;
26946;SDS011;14501;52.282;10.560;2024-03-07T11:24:31;20.08;;;7.70;;
26946;SDS011;14501;52.282;10.560;2024-03-07T11:26:58;15.02;;;6.78;;
26946;SDS011;14501;52.282;10.560;2024-03-07T11:32:11;23.42;;;7.50;;
26946;SDS011;14501;52.282;10.560;2024-03-07T11:34:41;17.67;;;7.45;;
26946;SDS011;14501;52.282;10.560;2024-03-07T11:37:08;20.08;;;6.63;;
26946;SDS011;14501;52.282;10.560;2024-03-07T11:39:46;15.35;;;6.28;;
26946;SDS011;14501;52.282;10.560;2024-03-07T11:44:51;13.43;;;5.82;;
26946;SDS011;14501;52.282;10.560;2024-03-07T11:47:17;18.10;;;6.32;;
26946;SDS011;14501;52.282;10.560;2024-03-07T11:49:43;18.30;;;6.53;;
26946;SDS011;14501;52.282;10.560;2024-03-07T11:52:13;18.65;;;5.90;;
26946;SDS011;14501;52.282;10.560;2024-03-07T11:54:41;12.27;;;5.65;;
26946;SDS011;14501;52.282;10.560;2024-03-07T11:57:11;13.60;;;6.70;;
26946;SDS011;14501;52.282;10.560;2024-03-07T11:59:51;13.55;;;5.40;;
26946;SDS011;14501;52.282;10.560;2024-03-07T12:02:18;15.50;;;6.78;;
26946;SDS011;14501;52.282;10.560;2024-03-07T12:04:49;15.18;;;5.53;;
26946;SDS011;14501;52.282;10.560;2024-03-07T12:07:15;8.05;;;4.20;;
26946;SDS011;14501;52.282;10.560;2024-03-07T12:09:42;17.83;;;7.00;;
26946;SDS011;14501;52.282;10.560;2024-03-07T12:12:15;14.32;;;6.38;;
26946;SDS011;14501;52.282;10.560;2024-03-07T12:14:42;13.18;;;6.88;;
26946;SDS011;14501;52.282;10.560;2024-03-07T12:17:08;22.02;;;8.70;;
26946;SDS011;14501;52.282;10.560;2024-03-07T12:19:34;16.95;;;7.10;;
26946;SDS011;14501;52.282;10.560;2024-03-07T12:22:00;11.98;;;6.03;;
26946;SDS011;14501;52.282;10.560;2024-03-07T12:24:27;18.45;;;6.32;;
26946;SDS011;14501;52.282;10.560;2024-03-07T12:27:04;15.60;;;7.35;;
26946;SDS011;14501;52.282;10.560;2024-03-07T12:29:31;11.32;;;6.88;;
26946;SDS011;14501;52.282;10.560;2024-03-07T12:31:57;9.50;;;4.43;;
26946;SDS011;14501;52.282;10.560;2024-03-07T12:34:24;23.55;;;6.68;;
26946;SDS011;14501;52.282;10.560;2024-03-07T12:36:52;11.93;;;5.60;;
26946;SDS011;14501;52.282;10.560;2024-03-07T12:39:21;10.93;;;5.93;;
26946;SDS011;14501;52.282;10.560;2024-03-07T12:41:50;17.50;;;6.72;;
26946;SDS011;14501;52.282;10.560;2024-03-07T12:44:22;14.30;;;6.95;;
26946;SDS011;14501;52.282;10.560;2024-03-07T12:46:48;20.30;;;7.07;;
26946;SDS011;14501;52.282;10.560;2024-03-07T12:49:18;14.88;;;6.30;;
26946;SDS011;14501;52.282;10.560;2024-03-07T12:51:44;13.75;;;7.22;;
26946;SDS011;14501;52.282;10.560;2024-03-07T12:54:09;13.45;;;6.53;;
26946;SDS011;14501;52.282;10.560;2024-03-07T12:56:36;17.65;;;6.88;;
26946;SDS011;14501;52.282;10.560;2024-03-07T12:59:02;14.50;;;5.95;;
26946;SDS011;14501;52.282;10.560;2024-03-07T13:01:29;15.85;;;5.75;;
26946;SDS011;14501;52.282;10.560;2024-03-07T13:03:55;9.52;;;5.78;;
26946;SDS011;14501;52.282;10.560;2024-03-07T13:06:21;12.40;;;5.40;;
26946;SDS011;14501;52.282;10.560;2024-03-07T13:08:54;24.35;;;6.18;;
26946;SDS011;14501;52.282;10.560;2024-03-07T13:11:23;12.07;;;6.32;;
26946;SDS011;14501;52.282;10.560;2024-03-07T13:13:52;13.73;;;6.15;;
26946;SDS011;14501;52.282;10.560;2024-03-07T13:16:18;13.50;;;5.82;;
26946;SDS011;14501;52.282;10.560;2024-03-07T13:18:44;13.52;;;7.05;;
26946;SDS011;14501;52.282;10.560;2024-03-07T13:21:10;10.90;;;5.55;;
26946;SDS011;14501;52.282;10.560;2024-03-07T13:23:42;13.15;;;6.35;;
26946;SDS011;14501;52.282;10.560;2024-03-07T13:26:08;16.83;;;6.82;;
26946;SDS011;14501;52.282;10.560;2024-03-07T13:28:41;15.57;;;5.40;;
26946;SDS011;14501;52.282;10.560;2024-03-07T13:31:10;12.38;;;6.03;;
26946;SDS011;14501;52.282;10.560;2024-03-07T13:33:42;13.52;;;4.97;;
26946;SDS011;14501;52.282;10.560;2024-03-07T13:36:08;9.82;;;5.65;;
26946;SDS011;14501;52.282;10.560;2024-03-07T13:38:37;11.05;;;5.45;;
26946;SDS011;14501;52.282;10.560;2024-03-07T13:41:03;14.23;;;5.35;;
26946;SDS011;14501;52.282;10.560;2024-03-07T13:43:29;10.65;;;5.47;;
26946;SDS011;14501;52.282;10.560;2024-03-07T13:45:55;7.70;;;4.88;;
26946;SDS011;14501;52.282;10.560;2024-03-07T13:48:21;12.15;;;6.32;;
26946;SDS011;14501;52.282;10.560;2024-03-07T13:50:47;9.35;;;5.45;;
26946;SDS011;14501;52.282;10.560;2024-03-07T13:53:18;8.55;;;4.57;;
26946;SDS011;14501;52.282;10.560;2024-03-07T13:58:48;10.70;;;5.78;;
26946;SDS011;14501;52.282;10.560;2024-03-07T14:01:45;10.00;;;3.88;;
26946;SDS011;14501;52.282;10.560;2024-03-07T14:04:38;14.05;;;4.93;;
26946;SDS011;14501;52.282;10.560;2024-03-07T14:07:26;10.82;;;5.38;;
26946;SDS011;14501;52.282;10.560;2024-03-07T14:27:50;12.43;;;5.38;;
26946;SDS011;14501;52.282;10.560;2024-03-07T14:33:08;9.27;;;4.13;;
26946;SDS011;14501;52.282;10.560;2024-03-07T14:40:52;13.68;;;6.28;;
26946;SDS011;14501;52.282;10.560;2024-03-07T14:43:18;11.10;;;4.78;;
26946;SDS011;14501;52.282;10.560;2024-03-07T14:45:45;13.10;;;5.25;;
26946;SDS011;14501;52.282;10.560;2024-03-07T14:48:12;11.55;;;5.28;;
26946;SDS011;14501;52.282;10.560;2024-03-07T14:50:41;13.80;;;6.10;;
26946;SDS011;14501;52.282;10.560;2024-03-07T14:53:09;12.35;;;4.93;;
26946;SDS011;14501;52.282;10.560;2024-03-07T14:55:37;14.02;;;5.78;;
26946;SDS011;14501;52.282;10.560;2024-03-07T14:58:04;9.38;;;4.82;;
26946;SDS011;14501;52.282;10.560;2024-03-07T15:00:34;7.88;;;3.72;;
26946;SDS011;14501;52.282;10.560;2024-03-07T15:03:06;11.48;;;5.25;;
26946;SDS011;14501;52.282;10.560;2024-03-07T15:05:38;7.97;;;4.55;;